createdAt,value
2022-10-18T00:01:00.388Z,102578.34
2022-10-18T00:06:06.145Z,102580.09
2022-10-18T00:39:01.565Z,102585.34
2022-10-18T00:44:07.972Z,102599.28
2022-10-18T00:49:16.090Z,102601.63
2022-10-18T00:54:21.243Z,102598.63
2022-10-18T00:59:26.777Z,102590.25
2022-10-18T01:04:29.936Z,102588.06
2022-10-18T01:09:39.250Z,102603.88
2022-10-18T01:14:50.888Z,102610.59
2022-10-18T01:20:22.765Z,102609.16
2022-10-18T01:25:35.458Z,102613.53
2022-10-18T01:30:46.862Z,102616.88
2022-10-18T01:35:55.347Z,102615.66
2022-10-18T01:41:00.897Z,102603.94
2022-10-18T01:46:05.870Z,102601.81
2022-10-18T01:51:10.338Z,102626.28
2022-10-18T01:56:28.235Z,102615.16
2022-10-18T02:01:39.683Z,102606.16
2022-10-18T02:06:46.314Z,102598.00
2022-10-18T02:11:54.210Z,102609.31
2022-10-18T02:17:04.872Z,102594.97
2022-10-18T02:22:09.693Z,102605.09
2022-10-18T02:27:13.534Z,102597.78
2022-10-18T02:32:22.624Z,102602.97
2022-10-18T02:37:30.629Z,102610.25
2022-10-18T02:42:37.881Z,102622.31
2022-10-18T02:47:42.231Z,102619.25
2022-10-18T02:52:45.255Z,102626.19
2022-10-18T02:57:48.202Z,102628.06
2022-10-18T03:02:53.838Z,102625.19
2022-10-18T03:07:57.893Z,102625.84
2022-10-18T03:13:00.963Z,102632.44
2022-10-18T03:18:05.669Z,102627.72
2022-10-18T03:23:08.523Z,102622.38
2022-10-18T03:28:11.514Z,102621.06
2022-10-18T03:33:16.924Z,102631.06
2022-10-18T03:38:19.908Z,102628.31
2022-10-18T03:43:22.910Z,102620.22
2022-10-18T03:48:27.333Z,102624.19
2022-10-18T03:53:30.245Z,102607.78
2022-10-18T04:03:38.392Z,102619.56
2022-10-18T04:08:41.361Z,102620.72
2022-10-18T04:13:44.399Z,102634.53
2022-10-18T04:18:48.848Z,102622.19
2022-10-18T04:23:52.354Z,102621.84
2022-10-18T04:28:55.538Z,102627.50
2022-10-18T04:34:00.022Z,102628.25
2022-10-18T04:39:03.079Z,102626.34
2022-10-18T04:44:06.462Z,102618.84
2022-10-18T04:49:10.868Z,102628.47
2022-10-18T04:54:13.952Z,102637.09
2022-10-18T04:59:17.127Z,102640.31
2022-10-18T05:04:21.626Z,102643.69
2022-10-18T05:09:24.916Z,102649.56
2022-10-18T05:14:27.896Z,102649.38
2022-10-18T05:19:32.246Z,102656.38
2022-10-18T05:24:35.206Z,102657.97
2022-10-18T05:29:38.161Z,102664.84
2022-10-18T05:34:42.467Z,102659.03
2022-10-18T05:39:48.574Z,102651.47
2022-10-18T05:44:51.543Z,102650.31
2022-10-18T05:49:56.072Z,102657.91
2022-10-18T05:54:58.984Z,102660.19
2022-10-18T06:00:01.983Z,102663.47
2022-10-18T06:05:16.146Z,102672.09
2022-10-18T06:10:19.357Z,102677.78
2022-10-18T06:15:22.386Z,102689.88
2022-10-18T06:20:26.839Z,102692.84
2022-10-18T06:25:30.002Z,102704.13
2022-10-18T06:30:34.323Z,102710.00
2022-10-18T06:35:38.843Z,102714.88
2022-10-18T06:40:41.803Z,102721.50
2022-10-18T06:45:44.822Z,102741.25
2022-10-18T06:50:55.000Z,102748.69
2022-10-18T06:56:00.999Z,102752.63
2022-10-18T07:01:08.276Z,102759.91
2022-10-18T07:06:14.775Z,102749.47
2022-10-18T07:11:21.160Z,102760.56
2022-10-18T07:16:24.160Z,102771.31
2022-10-18T07:21:28.777Z,102779.47
2022-10-18T07:26:33.685Z,102779.59
2022-10-18T07:31:38.441Z,102778.22
2022-10-18T07:36:42.767Z,102800.88
2022-10-18T07:41:45.758Z,102795.25
2022-10-18T07:46:48.983Z,102813.38
2022-10-18T07:51:53.448Z,102818.81
2022-10-18T07:56:58.518Z,102826.06
2022-10-18T08:02:01.510Z,102827.91
2022-10-18T08:07:06.424Z,102830.13
2022-10-18T08:12:09.771Z,102825.19
2022-10-18T08:17:12.848Z,102846.94
2022-10-18T08:22:17.139Z,102840.28
2022-10-18T08:27:20.403Z,102846.34
2022-10-18T08:32:23.519Z,102845.38
2022-10-18T08:37:27.872Z,102853.16
2022-10-18T08:43:04.022Z,102850.19
2022-10-18T08:48:09.101Z,102849.50
2022-10-18T08:53:20.889Z,102853.75
2022-10-18T08:58:26.805Z,102851.41
2022-10-18T09:03:49.216Z,102847.59
2022-10-18T09:09:04.300Z,102845.69
2022-10-18T09:14:39.662Z,102850.94
2022-10-18T09:19:55.301Z,102841.31
2022-10-18T09:25:07.325Z,102852.59
2022-10-18T09:30:20.967Z,102849.72
2022-10-18T09:35:27.147Z,102854.69
2022-10-18T09:40:35.037Z,102856.97
2022-10-18T09:45:41.583Z,102860.13
2022-10-18T09:50:52.638Z,102862.31
2022-10-18T09:56:03.381Z,102872.16
2022-10-18T10:01:07.411Z,102873.78
2022-10-18T10:06:19.511Z,102870.69
2022-10-18T10:11:32.839Z,102881.63
2022-10-18T10:16:44.906Z,102889.19
2022-10-18T10:21:51.273Z,102891.16
2022-10-18T10:27:03.012Z,102885.47
2022-10-18T10:32:06.005Z,102901.38
2022-10-18T10:37:25.218Z,102893.34
2022-10-18T10:42:30.032Z,102889.38
2022-10-18T10:47:34.871Z,102907.38
2022-10-18T10:52:40.530Z,102905.75
2022-10-18T10:57:51.113Z,102897.78
2022-10-18T11:03:27.284Z,102910.91
2022-10-18T11:08:37.011Z,102912.81
2022-10-18T11:13:56.967Z,102922.44
2022-10-18T11:19:30.966Z,102916.41
2022-10-18T11:24:36.573Z,102914.16
2022-10-18T11:29:52.724Z,102908.84
2022-10-18T11:35:17.644Z,102906.38
2022-10-18T11:40:37.562Z,102903.53
2022-10-18T11:45:49.717Z,102893.97
2022-10-18T11:50:59.144Z,102898.88
2022-10-18T11:56:10.921Z,102897.56
2022-10-18T12:01:28.436Z,102893.06
2022-10-18T12:06:35.856Z,102899.38
2022-10-18T12:11:47.162Z,102892.22
2022-10-18T12:17:07.815Z,102880.66
2022-10-18T12:22:22.471Z,102881.41
2022-10-18T12:27:34.452Z,102886.00
2022-10-18T12:32:40.299Z,102880.47
2022-10-18T12:38:16.105Z,102881.66
2022-10-18T12:43:23.014Z,102874.06
2022-10-18T12:48:38.817Z,102867.59
2022-10-18T12:53:45.009Z,102880.66
2022-10-18T12:58:47.980Z,102875.41
2022-10-18T13:03:58.718Z,102868.00
2022-10-18T13:09:18.657Z,102851.72
2022-10-18T13:14:53.625Z,102858.09
2022-10-18T13:20:27.349Z,102857.00
2022-10-18T13:25:39.856Z,102849.81
2022-10-18T13:30:56.609Z,102852.69
2022-10-18T13:36:03.039Z,102854.09
2022-10-18T13:41:07.768Z,102845.56
2022-10-18T13:46:10.842Z,102843.44
2022-10-18T13:51:48.283Z,102853.84
2022-10-18T13:57:15.759Z,102853.47
2022-10-18T14:02:50.932Z,102855.41
2022-10-18T14:08:06.932Z,102837.03
2022-10-18T14:13:22.110Z,102850.03
2022-10-18T14:18:32.024Z,102849.81
2022-10-18T14:23:39.084Z,102841.28
2022-10-18T14:28:59.154Z,102855.38
2022-10-18T14:34:04.697Z,102848.59
2022-10-18T14:39:21.097Z,102850.81
2022-10-18T14:44:27.942Z,102851.88
2022-10-18T14:49:31.505Z,102853.16
2022-10-18T14:54:39.057Z,102865.28
2022-10-18T14:59:46.779Z,102855.16
2022-10-18T15:04:57.255Z,102845.69
2022-10-18T15:10:04.093Z,102856.53
2022-10-18T15:15:17.610Z,102852.53
2022-10-18T15:20:25.030Z,102841.56
2022-10-18T15:25:35.580Z,102856.56
2022-10-18T15:30:42.614Z,102859.84
2022-10-18T15:35:47.672Z,102853.44
2022-10-18T15:40:52.175Z,102867.59
2022-10-18T15:45:58.874Z,102856.38
2022-10-18T15:51:06.663Z,102866.47
2022-10-18T15:56:26.847Z,102872.72
2022-10-18T16:01:35.611Z,102877.47
2022-10-18T16:07:28.221Z,102875.81
2022-10-18T16:12:32.577Z,102872.44
2022-10-18T16:17:35.961Z,102880.41
2022-10-18T16:22:39.244Z,102886.69
2022-10-18T16:27:44.043Z,102888.19
2022-10-18T16:32:48.981Z,102889.81
2022-10-18T16:37:52.053Z,102885.06
2022-10-18T16:42:56.493Z,102891.16
2022-10-18T16:47:59.501Z,102891.31
2022-10-18T16:53:02.421Z,102893.16
2022-10-18T16:58:07.179Z,102898.44
2022-10-18T17:03:10.397Z,102905.38
2022-10-18T17:08:20.500Z,102910.72
2022-10-18T17:13:26.483Z,102923.56
2022-10-18T17:18:30.667Z,102930.50
2022-10-18T17:23:34.288Z,102939.66
2022-10-18T17:28:38.837Z,102931.69
2022-10-18T17:33:41.934Z,102938.09
2022-10-18T17:38:46.781Z,102949.81
2022-10-18T17:43:51.511Z,102954.25
2022-10-18T17:48:54.909Z,102964.09
2022-10-18T17:53:57.925Z,102958.50
2022-10-18T17:59:02.477Z,102954.88
2022-10-18T18:04:05.597Z,102956.66
2022-10-18T18:09:14.553Z,102958.63
2022-10-18T18:14:19.371Z,102967.19
2022-10-18T18:19:23.949Z,102963.31
2022-10-18T18:24:27.371Z,102962.78
2022-10-18T18:29:31.781Z,102973.19
2022-10-18T18:34:35.140Z,102968.28
2022-10-18T18:39:39.447Z,102964.00
2022-10-18T18:44:45.997Z,102972.19
2022-10-18T18:49:49.069Z,102969.84
2022-10-18T18:54:52.223Z,102977.69
2022-10-18T18:59:56.621Z,102973.50
2022-10-18T19:04:59.664Z,102986.91
2022-10-18T19:10:02.635Z,102989.91
2022-10-18T19:15:08.291Z,102984.69
2022-10-18T19:20:15.192Z,102983.84
2022-10-18T19:25:19.420Z,102989.97
2022-10-18T19:30:24.724Z,102995.28
2022-10-18T19:35:27.803Z,102994.59
2022-10-18T19:40:30.762Z,102993.47
2022-10-18T19:45:35.228Z,102981.31
2022-10-18T19:50:38.226Z,102987.31
2022-10-18T19:55:41.093Z,102996.53
2022-10-18T20:00:45.509Z,102981.94
2022-10-18T20:05:48.573Z,102990.06
2022-10-18T20:10:52.297Z,102982.34
2022-10-18T20:15:56.772Z,102982.66
2022-10-18T20:21:00.062Z,102985.91
2022-10-18T20:26:05.098Z,102985.41
2022-10-18T20:31:12.317Z,102983.28
2022-10-18T20:36:17.215Z,102963.38
2022-10-18T20:41:22.902Z,102965.72
2022-10-18T20:46:28.280Z,102967.22
2022-10-18T20:51:31.271Z,102970.34
2022-10-18T20:56:36.677Z,102970.84
2022-10-18T21:01:41.622Z,102984.00
2022-10-18T21:06:45.291Z,102981.38
2022-10-18T21:11:50.490Z,102983.28
2022-10-18T21:16:55.001Z,102980.34
2022-10-18T21:21:58.943Z,102976.97
2022-10-18T21:27:02.087Z,102976.53
2022-10-18T21:32:06.709Z,102976.31
2022-10-18T21:37:09.806Z,102977.31
2022-10-18T21:42:13.858Z,102975.97
2022-10-18T21:47:18.398Z,102975.19
2022-10-18T21:52:21.837Z,102969.94
2022-10-18T21:57:24.858Z,102967.69
2022-10-18T22:02:29.177Z,102966.34
2022-10-18T22:07:32.365Z,102963.16
2022-10-18T22:12:35.522Z,102964.66
2022-10-18T22:17:40.118Z,102970.91
2022-10-18T22:22:43.177Z,102965.34
2022-10-18T22:27:46.143Z,102964.81
2022-10-18T22:32:50.621Z,102965.38
2022-10-18T22:37:55.314Z,102968.47
2022-10-18T22:42:58.331Z,102963.00
2022-10-18T22:48:02.836Z,102951.94
2022-10-18T22:53:05.908Z,102967.38
2022-10-18T22:58:08.900Z,102968.63
2022-10-18T23:03:15.269Z,102967.06
2022-10-18T23:08:18.277Z,102967.16
2022-10-18T23:13:21.197Z,102971.94
2022-10-18T23:18:25.640Z,102966.38
2022-10-18T23:23:30.686Z,102963.72
2022-10-18T23:28:37.950Z,102960.41
2022-10-18T23:33:42.714Z,102965.78
2022-10-18T23:38:46.057Z,102960.88
2022-10-18T23:43:49.170Z,102960.41
2022-10-18T23:48:53.536Z,102963.94
2022-10-18T23:53:56.474Z,102963.47
2022-10-18T23:58:59.470Z,102962.88
